Time;durP1;ratioP1;P1;durP2;ratioP2;P2;SDS_P1;SDS_P2;PMS_P1;PMS_P2;Temp;Humidity;BMP_temperature;BMP_pressure;BME280_temperature;BME280_humidity;BME280_pressure;Samples;Min_cycle;Max_cycle;Signal;HPM_P1;HPM_P2
2022/10/10 00:01:07;;;;;;;7.43;6.67;;;5.70;99.90;;;;;;5036529;28;20191;-68
2022/10/10 00:03:33;;;;;;;7.40;6.43;;;5.70;99.90;;;;;;5035171;28;20558;-68
2022/10/10 00:05:59;;;;;;;7.10;6.40;;;5.70;99.90;;;;;;5036479;28;20179;-67
2022/10/10 00:08:25;;;;;;;8.37;7.00;;;5.70;99.90;;;;;;5035154;28;20186;-67
2022/10/10 00:10:50;;;;;;;8.03;7.23;;;5.70;99.90;;;;;;5036187;28;20207;-67
2022/10/10 00:13:16;;;;;;;9.17;7.20;;;5.70;99.90;;;;;;5036666;28;20175;-68
2022/10/10 00:15:42;;;;;;;8.33;6.70;;;5.70;99.90;;;;;;5036762;28;20254;-68
2022/10/10 00:18:08;;;;;;;8.83;6.93;;;5.70;99.90;;;;;;5036117;28;20180;-68
2022/10/10 00:20:34;;;;;;;7.80;7.00;;;5.60;99.90;;;;;;5036687;28;20182;-67
2022/10/10 00:23:00;;;;;;;8.87;7.03;;;5.60;99.90;;;;;;5036382;28;20202;-68
2022/10/10 00:25:26;;;;;;;7.30;6.60;;;5.50;99.90;;;;;;5036337;28;20490;-68
2022/10/10 00:27:51;;;;;;;7.50;6.47;;;5.50;99.90;;;;;;5035916;28;20245;-68
2022/10/10 00:30:17;;;;;;;9.43;6.63;;;5.60;99.90;;;;;;5035933;28;20198;-68
2022/10/10 00:32:43;;;;;;;10.77;7.00;;;5.60;99.90;;;;;;5035811;28;20667;-68
2022/10/10 00:35:09;;;;;;;11.30;7.17;;;5.60;99.90;;;;;;5036013;28;20628;-67
2022/10/10 00:37:34;;;;;;;12.93;6.27;;;5.60;99.90;;;;;;5034619;28;20175;-68
2022/10/10 00:40:01;;;;;;;8.83;6.93;;;5.60;99.90;;;;;;5034627;28;20181;-67
2022/10/10 00:42:26;;;;;;;8.33;6.93;;;5.60;99.90;;;;;;5034489;28;20567;-68
2022/10/10 00:45:26;;;;;;;7.67;6.47;;;5.60;99.90;;;;;;5036315;28;20175;-67
2022/10/10 00:48:18;;;;;;;8.23;7.03;;;5.50;99.90;;;;;;5035641;28;20213;-67
2022/10/10 00:51:18;;;;;;;8.87;6.63;;;5.50;99.90;;;;;;5035108;28;20230;-67
2022/10/10 00:53:46;;;;;;;10.87;6.40;;;5.50;99.90;;;;;;5023131;28;20187;-68
2022/10/10 00:56:14;;;;;;;6.40;5.80;;;5.50;99.90;;;;;;5033677;28;20720;-68
2022/10/10 00:58:44;;;;;;;9.43;6.60;;;5.40;99.90;;;;;;5035506;28;20236;-68
2022/10/10 01:01:10;;;;;;;7.00;6.27;;;5.50;99.90;;;;;;5036411;28;20643;-67
2022/10/10 01:03:36;;;;;;;8.87;6.70;;;5.50;99.90;;;;;;5034233;28;20273;-68
2022/10/10 01:06:02;;;;;;;7.27;6.57;;;5.50;99.90;;;;;;5035505;28;20175;-68
2022/10/10 01:08:28;;;;;;;7.70;6.53;;;5.50;99.90;;;;;;5035440;28;20183;-68
2022/10/10 01:11:14;;;;;;;11.67;8.23;;;5.50;99.90;;;;;;5035269;28;20206;-67
2022/10/10 01:13:55;;;;;;;9.13;7.23;;;5.40;99.90;;;;;;5035405;28;20167;-68
2022/10/10 01:16:45;;;;;;;7.83;6.97;;;5.40;99.90;;;;;;5035323;28;20543;-68
2022/10/10 01:19:30;;;;;;;7.17;6.40;;;5.40;99.90;;;;;;5035194;28;20159;-68
2022/10/10 01:22:27;;;;;;;8.60;7.67;;;5.40;99.90;;;;;;5035182;28;20202;-68
2022/10/10 01:24:55;;;;;;;10.30;7.50;;;5.40;99.90;;;;;;5035102;28;20179;-68
2022/10/10 01:27:45;;;;;;;8.37;7.57;;;5.40;99.90;;;;;;5035138;28;20241;-68
2022/10/10 01:30:15;;;;;;;8.73;7.50;;;5.40;99.90;;;;;;5035303;28;20191;-68
2022/10/10 01:32:55;;;;;;;9.90;7.47;;;5.40;99.90;;;;;;5035103;28;20647;-68
2022/10/10 01:35:52;;;;;;;10.03;7.73;;;5.40;99.90;;;;;;5035297;28;20155;-68
2022/10/10 01:38:33;;;;;;;9.30;7.07;;;5.40;99.90;;;;;;5034598;28;20270;-68
2022/10/10 01:41:13;;;;;;;8.60;7.70;;;5.40;99.90;;;;;;5033643;28;20175;-68
2022/10/10 01:43:39;;;;;;;9.53;6.87;;;5.30;99.90;;;;;;5035202;28;20217;-68
2022/10/10 01:46:14;;;;;;;9.73;7.37;;;5.30;99.90;;;;;;5035053;28;20663;-68
2022/10/10 01:48:41;;;;;;;7.40;6.70;;;5.30;99.90;;;;;;5033199;28;20218;-68
2022/10/10 01:51:29;;;;;;;7.03;6.33;;;5.30;99.90;;;;;;5034864;28;20215;-67
2022/10/10 01:53:58;;;;;;;7.13;6.40;;;5.30;99.90;;;;;;5033455;28;20167;-67
2022/10/10 01:56:33;;;;;;;7.63;6.60;;;5.30;99.90;;;;;;5034447;28;20167;-67
2022/10/10 01:59:14;;;;;;;8.40;6.73;;;5.30;99.90;;;;;;5034429;28;20159;-67
2022/10/10 02:01:59;;;;;;;9.30;6.93;;;5.30;99.90;;;;;;5034508;28;20199;-67
2022/10/10 02:04:39;;;;;;;8.10;7.20;;;5.30;99.90;;;;;;5033009;28;20171;-67
2022/10/10 02:07:20;;;;;;;6.93;6.23;;;5.30;99.90;;;;;;5032989;28;20174;-67
2022/10/10 02:09:49;;;;;;;9.80;6.53;;;5.30;99.90;;;;;;5034509;28;20201;-67
2022/10/10 02:12:15;;;;;;;9.27;6.53;;;5.30;99.90;;;;;;5034275;28;20694;-67
2022/10/10 02:14:48;;;;;;;6.93;6.23;;;5.30;99.90;;;;;;5034739;28;20199;-67
2022/10/10 02:17:15;;;;;;;7.77;6.97;;;5.20;99.90;;;;;;5032686;28;20232;-68
2022/10/10 02:19:48;;;;;;;7.43;6.50;;;5.20;99.90;;;;;;5034362;28;20179;-68
2022/10/10 02:22:15;;;;;;;7.47;6.77;;;5.20;99.90;;;;;;5034156;28;20222;-67
2022/10/10 02:24:41;;;;;;;6.67;6.07;;;5.10;99.90;;;;;;5032849;28;20179;-67
2022/10/10 02:27:17;;;;;;;8.30;6.70;;;5.10;99.90;;;;;;5034232;28;20167;-68
2022/10/10 02:29:45;;;;;;;7.00;6.37;;;5.00;99.90;;;;;;5034317;28;20195;-67
2022/10/10 02:32:23;;;;;;;8.10;7.07;;;5.10;99.90;;;;;;5034217;28;20191;-67
2022/10/10 02:34:53;;;;;;;7.40;6.60;;;5.00;99.90;;;;;;5034234;28;20159;-68
2022/10/10 02:37:20;;;;;;;6.87;6.03;;;5.00;99.90;;;;;;5033952;28;20592;-67
2022/10/10 02:39:50;;;;;;;7.97;6.80;;;5.00;99.90;;;;;;5033769;28;20179;-67
2022/10/10 02:42:19;;;;;;;9.57;6.63;;;4.90;99.90;;;;;;5033911;28;20655;-68
2022/10/10 02:44:45;;;;;;;8.60;6.60;;;4.90;99.90;;;;;;5034011;28;20225;-67
2022/10/10 02:47:12;;;;;;;7.03;6.33;;;4.80;99.90;;;;;;5032402;28;20806;-67
2022/10/10 02:49:37;;;;;;;8.83;6.57;;;4.80;99.90;;;;;;5033514;28;20336;-67
2022/10/10 02:52:03;;;;;;;10.10;7.23;;;4.80;99.90;;;;;;5033817;28;20270;-67
2022/10/10 02:54:29;;;;;;;10.37;6.27;;;4.80;99.90;;;;;;5032328;28;20659;-67
2022/10/10 02:56:55;;;;;;;11.03;6.70;;;4.70;99.90;;;;;;5033793;28;20175;-67
2022/10/10 02:59:21;;;;;;;7.33;6.30;;;4.70;99.90;;;;;;5033631;28;20159;-68
2022/10/10 03:01:46;;;;;;;7.10;6.27;;;4.70;99.90;;;;;;5033447;28;20560;-67
2022/10/10 03:04:13;;;;;;;7.13;6.33;;;4.70;99.90;;;;;;5033406;28;20182;-67
2022/10/10 03:06:38;;;;;;;7.33;6.60;;;4.80;99.90;;;;;;5033450;28;20177;-68
2022/10/10 03:09:05;;;;;;;8.10;6.50;;;4.70;99.90;;;;;;5033414;28;20198;-68
2022/10/10 03:11:31;;;;;;;7.33;6.30;;;4.70;99.90;;;;;;5038581;28;20191;-67
2022/10/10 03:13:56;;;;;;;7.83;6.63;;;4.70;99.90;;;;;;5035598;28;20221;-67
2022/10/10 03:16:22;;;;;;;7.37;6.67;;;4.70;99.90;;;;;;5034439;28;20198;-67
2022/10/10 03:18:48;;;;;;;7.17;6.47;;;4.70;99.90;;;;;;5032508;28;20530;-67
2022/10/10 03:21:14;;;;;;;9.67;6.20;;;4.70;99.90;;;;;;5038153;28;20191;-67
2022/10/10 03:23:39;;;;;;;8.20;5.83;;;4.60;99.90;;;;;;5036708;28;20336;-67
2022/10/10 03:26:05;;;;;;;6.67;6.00;;;4.60;99.90;;;;;;5037656;28;20175;-67
2022/10/10 03:28:31;;;;;;;6.27;5.67;;;4.60;99.90;;;;;;5036195;28;20655;-67
2022/10/10 03:30:57;;;;;;;6.47;5.87;;;4.60;99.90;;;;;;5035972;28;20205;-67
2022/10/10 03:33:23;;;;;;;7.13;6.20;;;4.60;99.90;;;;;;5035834;28;20186;-67
2022/10/10 03:35:49;;;;;;;6.43;5.83;;;4.50;99.90;;;;;;5037479;28;20239;-66
2022/10/10 03:38:15;;;;;;;16.70;7.07;;;4.50;99.90;;;;;;5037250;28;20222;-68
2022/10/10 03:40:42;;;;;;;6.60;5.90;;;4.50;99.90;;;;;;5035874;28;20171;-67
2022/10/10 03:43:12;;;;;;;6.87;5.93;;;4.50;99.90;;;;;;5036964;28;20285;-67
2022/10/10 03:45:40;;;;;;;7.60;6.07;;;4.50;99.90;;;;;;5037062;28;20178;-67
2022/10/10 03:48:06;;;;;;;6.70;6.07;;;4.60;99.90;;;;;;5035534;28;20194;-67
2022/10/10 03:50:32;;;;;;;10.00;6.23;;;4.60;99.90;;;;;;5035706;28;20210;-67
2022/10/10 03:52:57;;;;;;;7.03;6.10;;;4.50;99.90;;;;;;5036901;28;20701;-67
2022/10/10 03:55:23;;;;;;;7.20;6.13;;;4.50;99.90;;;;;;5035501;28;20190;-67
2022/10/10 03:57:49;;;;;;;8.73;6.03;;;4.50;99.90;;;;;;5036853;28;20175;-67
2022/10/10 04:00:15;;;;;;;6.13;5.60;;;4.50;99.90;;;;;;5035628;28;20186;-67
2022/10/10 04:02:41;;;;;;;6.93;6.27;;;4.50;99.90;;;;;;5037178;28;20668;-67
2022/10/10 04:05:07;;;;;;;6.20;5.60;;;4.50;99.90;;;;;;5035487;28;20190;-67
2022/10/10 04:07:32;;;;;;;8.27;5.93;;;4.50;99.90;;;;;;5037001;28;20179;-68
2022/10/10 04:09:58;;;;;;;7.90;6.20;;;4.50;99.90;;;;;;5035471;28;20641;-66
2022/10/10 04:12:24;;;;;;;7.20;5.90;;;4.50;99.90;;;;;;5035464;28;20194;-65
2022/10/10 04:14:50;;;;;;;5.97;5.47;;;4.50;99.90;;;;;;5037419;28;20243;-65
2022/10/10 04:17:16;;;;;;;6.63;5.83;;;4.50;99.90;;;;;;5036594;28;20651;-65
2022/10/10 04:19:42;;;;;;;6.27;5.67;;;4.50;99.90;;;;;;5036254;28;20172;-65
2022/10/10 04:22:08;;;;;;;6.00;5.50;;;4.50;99.90;;;;;;5036277;28;20283;-65
2022/10/10 04:24:33;;;;;;;5.97;5.47;;;4.50;99.90;;;;;;5036465;28;20179;-65
2022/10/10 04:26:59;;;;;;;7.27;6.00;;;4.50;99.90;;;;;;5035984;28;20302;-66
2022/10/10 04:29:25;;;;;;;6.90;6.20;;;4.50;99.90;;;;;;5036156;28;20191;-65
2022/10/10 04:31:50;;;;;;;6.50;5.80;;;4.50;99.90;;;;;;5035266;28;20187;-65
2022/10/10 04:34:16;;;;;;;7.23;5.70;;;4.40;99.90;;;;;;5036093;28;20662;-68
2022/10/10 04:36:42;;;;;;;5.50;5.10;;;4.40;99.90;;;;;;5035101;28;20318;-67
2022/10/10 04:39:08;;;;;;;9.37;5.93;;;4.40;99.90;;;;;;5035367;28;20206;-66
2022/10/10 04:41:34;;;;;;;6.80;6.10;;;4.40;99.90;;;;;;5036615;28;20194;-68
2022/10/10 04:44:00;;;;;;;6.37;5.60;;;4.40;99.90;;;;;;5034893;28;20183;-68
2022/10/10 04:46:26;;;;;;;7.07;5.33;;;4.40;99.90;;;;;;5036547;28;20217;-63
2022/10/10 04:48:51;;;;;;;9.80;6.17;;;4.40;99.90;;;;;;5034671;28;20199;-64
2022/10/10 04:51:17;;;;;;;7.03;6.13;;;4.40;99.90;;;;;;5035747;28;20248;-64
2022/10/10 04:53:43;;;;;;;7.60;6.00;;;4.40;99.90;;;;;;5036252;28;20521;-65
2022/10/10 04:56:09;;;;;;;6.30;5.70;;;4.40;99.90;;;;;;5035622;28;20541;-64
2022/10/10 04:58:35;;;;;;;6.77;6.07;;;4.40;99.90;;;;;;5035652;28;20163;-65
2022/10/10 05:01:00;;;;;;;8.10;6.00;;;4.40;99.90;;;;;;5035392;28;20171;-64
2022/10/10 05:03:26;;;;;;;6.80;5.77;;;4.40;99.90;;;;;;5034127;28;20202;-64
2022/10/10 05:05:52;;;;;;;8.73;6.07;;;4.40;99.90;;;;;;5035472;28;20190;-64
2022/10/10 05:08:18;;;;;;;6.73;5.90;;;4.40;99.90;;;;;;5035819;28;20180;-65
2022/10/10 05:10:45;;;;;;;7.40;6.70;;;4.40;99.90;;;;;;5035159;28;20290;-64
2022/10/10 05:13:13;;;;;;;8.13;6.10;;;4.40;99.90;;;;;;5035242;28;20195;-65
2022/10/10 05:15:39;;;;;;;8.67;6.17;;;4.40;99.90;;;;;;5035282;28;20174;-65
2022/10/10 05:18:05;;;;;;;9.03;6.33;;;4.40;99.90;;;;;;5035437;28;20175;-65
2022/10/10 05:20:32;;;;;;;6.87;5.80;;;4.30;99.90;;;;;;5035541;28;20187;-65
2022/10/10 05:22:58;;;;;;;6.20;5.60;;;4.40;99.90;;;;;;5033890;28;20238;-65
2022/10/10 05:25:24;;;;;;;8.07;5.90;;;4.40;99.90;;;;;;5035203;28;20202;-65
2022/10/10 05:27:49;;;;;;;6.60;5.90;;;4.30;99.90;;;;;;5035266;28;20682;-65
2022/10/10 05:30:15;;;;;;;7.90;6.30;;;4.30;99.90;;;;;;5033890;28;20199;-65
2022/10/10 05:32:41;;;;;;;6.50;5.90;;;4.40;99.90;;;;;;5035290;28;20290;-66
2022/10/10 05:35:07;;;;;;;7.00;6.00;;;4.40;99.90;;;;;;5035115;28;20175;-65
2022/10/10 05:37:33;;;;;;;6.70;5.93;;;4.40;99.90;;;;;;5035179;28;20533;-65
2022/10/10 05:39:59;;;;;;;7.17;6.47;;;4.30;99.90;;;;;;5034854;28;20178;-65
2022/10/10 05:42:25;;;;;;;10.37;6.73;;;4.30;99.90;;;;;;5033103;28;20565;-65
2022/10/10 05:44:50;;;;;;;7.27;6.40;;;4.40;99.90;;;;;;5035118;28;20640;-65
2022/10/10 05:47:16;;;;;;;8.93;6.67;;;4.40;99.90;;;;;;5034836;28;20179;-65
2022/10/10 05:49:42;;;;;;;7.67;6.43;;;4.40;99.90;;;;;;5034456;28;20199;-65
2022/10/10 05:52:08;;;;;;;7.83;6.23;;;4.40;99.90;;;;;;5033322;28;20205;-65
2022/10/10 05:54:34;;;;;;;9.67;6.93;;;4.50;99.90;;;;;;5034655;28;20250;-65
2022/10/10 05:57:00;;;;;;;8.20;6.83;;;4.40;99.90;;;;;;5035192;28;20229;-65
2022/10/10 05:59:28;;;;;;;6.73;6.13;;;4.40;99.90;;;;;;5034489;28;20187;-65
2022/10/10 06:01:54;;;;;;;6.90;6.10;;;4.40;99.90;;;;;;5034344;28;20191;-65
2022/10/10 06:04:20;;;;;;;9.00;6.83;;;4.50;99.90;;;;;;5034296;28;20258;-64
2022/10/10 06:06:46;;;;;;;9.53;6.63;;;4.50;99.90;;;;;;5034295;28;20175;-65
2022/10/10 06:09:12;;;;;;;8.30;6.50;;;4.40;99.90;;;;;;5032969;28;20207;-65
2022/10/10 06:11:38;;;;;;;8.13;6.93;;;4.50;99.90;;;;;;5034026;28;20194;-65
2022/10/10 06:14:03;;;;;;;7.63;6.83;;;4.50;99.90;;;;;;5034089;28;20179;-65
2022/10/10 06:16:29;;;;;;;8.67;7.07;;;4.50;99.90;;;;;;5034015;28;20183;-65
2022/10/10 06:18:58;;;;;;;7.53;6.73;;;4.60;99.90;;;;;;5033893;28;20179;-64
2022/10/10 06:21:24;;;;;;;7.20;6.50;;;4.60;99.90;;;;;;5034086;28;20640;-65
2022/10/10 06:23:50;;;;;;;9.73;6.30;;;4.60;99.90;;;;;;5033983;28;20178;-65
2022/10/10 06:26:16;;;;;;;6.97;6.27;;;4.70;99.90;;;;;;5032730;28;20172;-65
2022/10/10 06:28:41;;;;;;;8.70;6.97;;;4.70;99.90;;;;;;5033951;28;20354;-65
2022/10/10 06:31:10;;;;;;;10.17;6.83;;;4.80;99.90;;;;;;5034035;28;20207;-65
2022/10/10 06:33:36;;;;;;;9.43;7.10;;;4.90;99.90;;;;;;5033832;28;20237;-65
2022/10/10 06:36:07;;;;;;;8.93;7.20;;;4.90;99.90;;;;;;5033836;28;20175;-65
2022/10/10 06:38:40;;;;;;;9.77;7.03;;;5.00;99.90;;;;;;5033786;28;20175;-64
2022/10/10 06:41:07;;;;;;;11.07;6.77;;;5.10;99.90;;;;;;5033575;28;20194;-65
2022/10/10 06:43:34;;;;;;;9.50;7.07;;;5.20;99.90;;;;;;5033708;28;20175;-68
2022/10/10 06:46:00;;;;;;;9.27;7.20;;;5.20;99.90;;;;;;5033741;28;20175;-67
2022/10/10 06:48:28;;;;;;;9.07;7.97;;;5.30;99.90;;;;;;5033553;28;20179;-68
2022/10/10 06:51:00;;;;;;;8.93;7.30;;;5.40;99.90;;;;;;5033428;28;20195;-68
2022/10/10 06:53:26;;;;;;;7.77;6.80;;;5.50;99.90;;;;;;5033287;28;20206;-68
2022/10/10 06:55:54;;;;;;;8.57;6.70;;;5.60;99.90;;;;;;5032062;28;20175;-68
2022/10/10 06:58:21;;;;;;;11.13;7.27;;;5.70;99.90;;;;;;5033656;28;20249;-68
2022/10/10 07:00:54;;;;;;;8.50;7.57;;;5.80;99.90;;;;;;5033534;28;20167;-68
2022/10/10 07:03:20;;;;;;;9.00;8.00;;;5.90;99.90;;;;;;5033718;28;20679;-68
2022/10/10 07:05:58;;;;;;;9.20;7.97;;;6.00;99.90;;;;;;5033500;28;20238;-68
2022/10/10 07:08:24;;;;;;;8.70;7.47;;;6.10;99.90;;;;;;5034021;28;20274;-68
2022/10/10 07:10:50;;;;;;;10.33;8.00;;;6.20;99.90;;;;;;5033655;28;20313;-68
2022/10/10 07:13:16;;;;;;;9.70;7.20;;;6.30;99.90;;;;;;5033604;28;20179;-68
2022/10/10 07:15:42;;;;;;;9.67;7.80;;;6.50;99.90;;;;;;5033802;28;20179;-68
2022/10/10 07:18:09;;;;;;;10.77;7.73;;;6.60;99.90;;;;;;5033284;28;20595;-68
2022/10/10 07:20:35;;;;;;;9.30;7.13;;;6.70;99.90;;;;;;5032190;28;20179;-68
2022/10/10 07:23:02;;;;;;;8.73;6.90;;;7.00;99.90;;;;;;5033582;28;20268;-68
2022/10/10 07:25:27;;;;;;;7.07;6.20;;;7.20;99.90;;;;;;5033660;28;20183;-68
2022/10/10 07:27:53;;;;;;;7.97;6.50;;;7.40;99.90;;;;;;5033264;28;20202;-68
2022/10/10 07:30:19;;;;;;;8.97;7.03;;;7.70;99.90;;;;;;5033239;28;20226;-68
2022/10/10 07:32:45;;;;;;;8.40;6.57;;;7.90;99.90;;;;;;5033108;28;20566;-68
2022/10/10 07:35:11;;;;;;;8.00;7.20;;;8.20;99.90;;;;;;5033580;28;20183;-68
2022/10/10 07:37:37;;;;;;;8.33;7.40;;;8.50;99.90;;;;;;5033335;28;20170;-68
2022/10/10 07:40:04;;;;;;;8.43;7.40;;;8.80;99.90;;;;;;5033326;28;20184;-68
2022/10/10 07:42:30;;;;;;;7.73;6.77;;;9.10;99.90;;;;;;5033438;28;20202;-68
2022/10/10 07:44:56;;;;;;;8.67;7.33;;;9.40;99.90;;;;;;5032072;28;20549;-65
2022/10/10 07:47:22;;;;;;;7.43;6.67;;;9.60;99.90;;;;;;5033166;28;20179;-65
2022/10/10 07:49:47;;;;;;;9.10;6.80;;;9.90;99.90;;;;;;5031876;28;20610;-65
2022/10/10 07:52:13;;;;;;;8.13;6.57;;;10.00;99.90;;;;;;5033053;28;20241;-65
2022/10/10 07:54:39;;;;;;;11.17;6.67;;;10.10;99.90;;;;;;5033028;28;20178;-65
2022/10/10 07:57:04;;;;;;;10.77;6.93;;;10.40;99.90;;;;;;5033066;28;20250;-65
2022/10/10 07:59:30;;;;;;;12.83;6.67;;;10.70;99.90;;;;;;5033023;28;20539;-65
2022/10/10 08:01:56;;;;;;;9.67;6.77;;;11.00;99.90;;;;;;5033187;28;20195;-65
2022/10/10 08:04:21;;;;;;;12.23;7.17;;;11.40;99.90;;;;;;5032939;28;20178;-65
2022/10/10 08:06:47;;;;;;;9.10;6.20;;;11.50;99.90;;;;;;5036062;28;20229;-65
2022/10/10 08:09:13;;;;;;;10.90;6.07;;;11.70;99.90;;;;;;5036748;28;20207;-65
2022/10/10 08:11:39;;;;;;;11.07;6.20;;;11.90;99.90;;;;;;5035478;28;20253;-66
2022/10/10 08:14:05;;;;;;;11.13;6.00;;;12.00;99.90;;;;;;5036817;28;20159;-65
2022/10/10 08:16:30;;;;;;;8.93;5.93;;;12.10;99.90;;;;;;5036497;28;20168;-65
2022/10/10 08:18:56;;;;;;;7.20;5.70;;;12.30;99.90;;;;;;5036437;28;20207;-65
2022/10/10 08:21:22;;;;;;;5.97;5.37;;;12.60;99.90;;;;;;5036588;28;20668;-65
2022/10/10 08:23:47;;;;;;;9.70;6.23;;;12.90;99.90;;;;;;5036531;28;20235;-65
2022/10/10 08:26:15;;;;;;;6.17;5.57;;;13.20;99.90;;;;;;5036396;28;20656;-65
2022/10/10 08:28:41;;;;;;;10.70;5.15;;;13.40;99.90;;;;;;5036427;28;20659;-65
2022/10/10 08:31:10;;;;;;;9.10;5.25;;;13.60;99.90;;;;;;5036450;28;20202;-65
2022/10/10 08:33:36;;;;;;;8.50;4.80;;;13.70;99.90;;;;;;5036320;28;20200;-65
2022/10/10 08:36:14;;;;;;;9.57;4.78;;;13.80;99.90;;;;;;5036077;28;20168;-65
2022/10/10 08:38:41;;;;;;;6.80;5.47;;;13.90;99.90;;;;;;5036404;28;20520;-65
2022/10/10 08:41:17;;;;;;;9.27;4.75;;;14.00;99.90;;;;;;5034671;28;20282;-65
2022/10/10 08:43:48;;;;;;;10.45;5.07;;;14.10;99.90;;;;;;5035933;28;20170;-66
2022/10/10 08:46:20;;;;;;;8.48;4.68;;;14.20;99.90;;;;;;5036180;28;20171;-65
2022/10/10 08:48:49;;;;;;;7.53;4.90;;;14.30;99.90;;;;;;5035865;28;20325;-66
2022/10/10 08:51:27;;;;;;;6.95;5.25;;;14.30;99.90;;;;;;5035701;28;20698;-65
2022/10/10 08:53:56;;;;;;;7.68;4.60;;;14.40;99.90;;;;;;5036137;28;20163;-65
2022/10/10 08:56:29;;;;;;;10.57;5.35;;;14.50;99.90;;;;;;5036185;28;20181;-65
2022/10/10 08:59:05;;;;;;;7.90;4.93;;;14.60;99.90;;;;;;5035991;28;20202;-65
2022/10/10 09:01:35;;;;;;;7.75;4.97;;;14.70;99.90;;;;;;5035905;28;20189;-65
2022/10/10 09:04:04;;;;;;;5.97;4.75;;;14.70;99.90;;;;;;5035798;28;20629;-65
2022/10/10 09:06:57;;;;;;;7.63;4.38;;;14.80;99.90;;;;;;5034409;28;20250;-65
2022/10/10 09:09:36;;;;;;;6.00;4.72;;;14.90;99.90;;;;;;5035743;28;20199;-65
2022/10/10 09:12:40;;;;;;;10.93;4.25;;;14.90;99.90;;;;;;5034422;28;20277;-65
2022/10/10 09:15:14;;;;;;;7.60;5.15;;;14.90;99.90;;;;;;5033415;28;20655;-65
2022/10/10 09:17:51;;;;;;;9.75;5.22;;;14.90;99.90;;;;;;5032572;28;20197;-65
2022/10/10 09:20:35;;;;;;;5.57;4.47;;;14.90;99.90;;;;;;5034976;28;20217;-65
2022/10/10 09:23:11;;;;;;;5.20;4.50;;;15.00;99.90;;;;;;5035571;28;20210;-65
2022/10/10 09:25:41;;;;;;;8.65;5.00;;;15.00;99.90;;;;;;5035326;28;20194;-66
2022/10/10 09:28:39;;;;;;;7.78;4.70;;;15.10;99.90;;;;;;5035107;28;20288;-65
2022/10/10 09:31:15;;;;;;;7.70;4.60;;;15.20;99.90;;;;;;5035378;28;20199;-66
2022/10/10 09:33:48;;;;;;;9.15;4.50;;;15.30;99.90;;;;;;5035577;28;20183;-66
2022/10/10 09:36:20;;;;;;;12.90;4.53;;;15.30;99.90;;;;;;5034984;28;20233;-65
2022/10/10 09:38:58;;;;;;;6.40;4.60;;;15.40;99.90;;;;;;5035341;28;20160;-65
2022/10/10 09:41:52;;;;;;;10.50;4.82;;;15.60;99.90;;;;;;5035186;28;20237;-66
2022/10/10 09:44:20;;;;;;;8.27;4.65;;;15.70;99.90;;;;;;5034038;28;20170;-65
2022/10/10 09:46:46;;;;;;;7.68;4.50;;;15.70;99.90;;;;;;5034507;28;20171;-66
2022/10/10 09:49:16;;;;;;;11.52;4.72;;;15.70;99.90;;;;;;5034647;28;20179;-65
2022/10/10 09:51:43;;;;;;;9.75;4.80;;;15.70;99.90;;;;;;5035069;28;20725;-65
2022/10/10 09:54:11;;;;;;;11.38;4.57;;;15.80;99.90;;;;;;5033778;28;20183;-65
2022/10/10 09:56:42;;;;;;;7.78;4.22;;;15.90;99.90;;;;;;5035072;28;20202;-67
2022/10/10 09:59:37;;;;;;;10.23;4.57;;;16.00;99.90;;;;;;5034721;28;20155;-67
2022/10/10 10:02:17;;;;;;;9.30;4.70;;;16.00;99.90;;;;;;5034501;28;20809;-67
2022/10/10 10:04:43;;;;;;;9.93;4.45;;;16.10;99.90;;;;;;5034494;28;20249;-67
2022/10/10 10:07:27;;;;;;;6.93;4.13;;;16.20;99.90;;;;;;5033140;28;20178;-67
2022/10/10 10:10:09;;;;;;;10.57;4.00;;;16.30;99.90;;;;;;5034606;28;20194;-67
2022/10/10 10:12:43;;;;;;;8.95;4.03;;;16.30;99.90;;;;;;5034499;28;20194;-67
2022/10/10 10:15:28;;;;;;;10.38;3.72;;;16.40;99.90;;;;;;5034611;28;20176;-67
2022/10/10 10:18:20;;;;;;;6.43;3.80;;;16.40;99.90;;;;;;5034485;28;20189;-67
2022/10/10 10:20:52;;;;;;;3.88;3.30;;;16.50;99.90;;;;;;5034448;28;20616;-67
2022/10/10 10:23:30;;;;;;;9.10;4.03;;;16.60;99.90;;;;;;5034507;28;20177;-67
2022/10/10 10:26:05;;;;;;;10.45;4.03;;;16.70;99.90;;;;;;5034245;28;20163;-67
2022/10/10 10:28:39;;;;;;;8.77;3.92;;;16.80;99.90;;;;;;5033914;28;20194;-66
2022/10/10 10:31:12;;;;;;;5.88;3.72;;;16.80;99.90;;;;;;5034462;28;20647;-67
2022/10/10 10:33:56;;;;;;;9.73;3.47;;;17.00;99.90;;;;;;5034123;28;20167;-67
2022/10/10 10:36:40;;;;;;;6.38;4.28;;;17.10;99.90;;;;;;5033077;28;20527;-67
2022/10/10 10:39:14;;;;;;;6.00;3.63;;;17.20;99.90;;;;;;5034130;28;20159;-67
2022/10/10 10:41:54;;;;;;;6.03;3.63;;;17.50;99.90;;;;;;5034218;28;20191;-67
2022/10/10 10:44:45;;;;;;;7.35;3.38;;;17.60;99.90;;;;;;5032817;28;20163;-68
2022/10/10 10:47:29;;;;;;;6.75;4.10;;;17.70;99.90;;;;;;5034199;28;20650;-67
2022/10/10 10:50:05;;;;;;;10.15;3.95;;;17.70;99.90;;;;;;5032610;28;20195;-67
2022/10/10 10:52:52;;;;;;;11.15;3.30;;;17.70;99.90;;;;;;5032718;28;20672;-67
2022/10/10 10:55:20;;;;;;;8.48;4.00;;;17.80;99.90;;;;;;5032499;28;20176;-67
2022/10/10 10:58:05;;;;;;;5.93;3.15;;;17.70;99.90;;;;;;5032429;28;20167;-67
2022/10/10 11:00:49;;;;;;;8.15;3.35;;;17.80;99.90;;;;;;5033841;28;20168;-67
2022/10/10 11:03:47;;;;;;;9.15;3.55;;;17.80;99.90;;;;;;5034015;28;20201;-68
2022/10/10 11:06:59;;;;;;;8.88;3.55;;;17.90;99.90;;;;;;5032862;28;20195;-65
2022/10/10 11:09:44;;;;;;;6.95;2.72;;;18.00;99.90;;;;;;5032071;28;20211;-65
2022/10/10 11:12:20;;;;;;;5.63;3.08;;;18.00;99.90;;;;;;5033537;28;20191;-67
2022/10/10 11:15:18;;;;;;;8.98;3.35;;;17.90;99.90;;;;;;5033504;28;20167;-67
2022/10/10 11:17:57;;;;;;;7.38;3.33;;;17.80;99.90;;;;;;5032662;28;20199;-67
2022/10/10 11:20:44;;;;;;;10.38;3.85;;;17.80;99.90;;;;;;5033830;28;20166;-67
2022/10/10 11:23:21;;;;;;;7.00;2.92;;;17.80;99.90;;;;;;5033298;28;20197;-67
2022/10/10 11:25:56;;;;;;;9.23;3.88;;;18.00;99.90;;;;;;5032079;28;20240;-67
2022/10/10 11:28:39;;;;;;;8.32;3.67;;;18.30;99.90;;;;;;5033145;28;20270;-67
2022/10/10 11:31:12;;;;;;;7.47;3.33;;;18.20;99.90;;;;;;5033525;28;20186;-67
2022/10/10 11:33:58;;;;;;;6.90;3.72;;;18.10;99.90;;;;;;5033227;28;20166;-67
2022/10/10 11:36:28;;;;;;;5.95;3.13;;;18.00;99.90;;;;;;5033196;28;20159;-67
2022/10/10 11:38:58;;;;;;;6.80;3.17;;;18.00;99.90;;;;;;5033773;28;20181;-67
2022/10/10 11:41:51;;;;;;;7.35;3.97;;;18.00;99.90;;;;;;5035769;28;20210;-67
2022/10/10 11:44:46;;;;;;;11.98;3.70;;;18.30;99.90;;;;;;5037663;28;20151;-67
2022/10/10 11:47:35;;;;;;;8.13;3.53;;;18.50;99.90;;;;;;5035243;28;20191;-67
2022/10/10 11:50:19;;;;;;;5.88;2.70;;;18.40;99.90;;;;;;5036021;28;20633;-67
2022/10/10 11:53:06;;;;;;;9.27;3.17;;;18.30;99.90;;;;;;5036933;28;20276;-67
2022/10/10 11:55:50;;;;;;;8.80;3.10;;;18.50;99.90;;;;;;5037028;28;20181;-67
2022/10/10 11:58:32;;;;;;;8.75;3.42;;;18.70;99.90;;;;;;5036930;28;20148;-67
2022/10/10 12:01:05;;;;;;;9.90;3.65;;;18.70;99.90;;;;;;5036962;28;20190;-67
2022/10/10 12:03:31;;;;;;;7.95;3.20;;;18.50;99.90;;;;;;5037153;28;20166;-67
2022/10/10 12:06:12;;;;;;;15.02;3.58;;;18.40;99.90;;;;;;5035563;28;20183;-67
2022/10/10 12:09:02;;;;;;;8.82;3.03;;;18.30;99.90;;;;;;5035493;28;20531;-67
2022/10/10 12:11:30;;;;;;;7.57;3.22;;;18.50;99.90;;;;;;5036042;28;20225;-67
2022/10/10 12:14:00;;;;;;;6.57;3.40;;;18.60;99.90;;;;;;5036626;28;20536;-67
2022/10/10 12:16:28;;;;;;;10.95;3.90;;;18.60;99.90;;;;;;5036549;28;20175;-67
2022/10/10 12:19:00;;;;;;;11.77;3.08;;;18.40;99.90;;;;;;5036357;28;20187;-67
2022/10/10 12:21:28;;;;;;;6.88;2.92;;;18.30;99.90;;;;;;5035255;28;20671;-67
2022/10/10 12:24:09;;;;;;;7.45;3.33;;;18.20;99.90;;;;;;5036395;28;20698;-67
2022/10/10 12:26:54;;;;;;;7.32;3.15;;;18.20;99.90;;;;;;5036695;28;20165;-67
2022/10/10 12:29:38;;;;;;;8.27;3.53;;;18.30;99.90;;;;;;5036258;28;20221;-67
2022/10/10 12:32:13;;;;;;;6.53;3.35;;;18.40;99.90;;;;;;5036255;28;20278;-68
2022/10/10 12:34:43;;;;;;;9.88;3.80;;;18.40;99.90;;;;;;5034906;28;20181;-67
2022/10/10 12:37:27;;;;;;;8.95;3.45;;;18.40;99.90;;;;;;5036227;28;20198;-67
2022/10/10 12:40:15;;;;;;;6.72;3.08;;;18.30;99.90;;;;;;5036680;28;20214;-67
2022/10/10 12:42:46;;;;;;;9.20;3.28;;;18.20;99.90;;;;;;5036006;28;20201;-67
2022/10/10 12:45:27;;;;;;;4.60;3.40;;;18.20;99.90;;;;;;5036041;28;20183;-67
2022/10/10 12:47:54;;;;;;;9.35;3.50;;;18.10;99.90;;;;;;5035945;28;20217;-67
2022/10/10 12:50:40;;;;;;;7.93;3.63;;;18.10;99.90;;;;;;5034478;28;20199;-67
2022/10/10 12:53:06;;;;;;;12.38;3.53;;;18.00;99.90;;;;;;5034509;28;20209;-67
2022/10/10 12:55:44;;;;;;;12.50;4.05;;;18.00;99.90;;;;;;5036077;28;20172;-67
2022/10/10 12:58:36;;;;;;;6.63;3.42;;;18.00;99.90;;;;;;5035738;28;20186;-67
2022/10/10 13:01:06;;;;;;;11.55;4.05;;;18.10;99.90;;;;;;5035536;28;20229;-67
2022/10/10 13:03:38;;;;;;;9.27;4.00;;;18.10;99.90;;;;;;5035816;28;20213;-67
2022/10/10 13:06:19;;;;;;;12.38;4.68;;;18.10;99.90;;;;;;5035911;28;20674;-67
2022/10/10 13:08:46;;;;;;;7.15;3.53;;;18.20;99.90;;;;;;5035684;28;20183;-65
2022/10/10 13:11:14;;;;;;;9.82;3.92;;;18.10;99.90;;;;;;5035566;28;20215;-65
2022/10/10 13:13:51;;;;;;;13.10;4.13;;;18.10;99.90;;;;;;5035514;28;20586;-65